Time;durP1;ratioP1;P1;durP2;ratioP2;P2;SDS_P1;SDS_P2;PMS_P1;PMS_P2;Temp;Humidity;BMP_temperature;BMP_pressure;BME280_temperature;BME280_humidity;BME280_pressure;Samples;Min_cycle;Max_cycle;Signal;HPM_P1;HPM_P2
2021/05/26 00:00:56;;;;;;;7.22;1.45;;;;;;;10.25;65.24;101110.91;5069306;28;20060;-49
2021/05/26 00:03:23;;;;;;;9.60;1.83;;;;;;;10.26;65.03;101109.78;5049307;28;20067;-49
2021/05/26 00:05:51;;;;;;;3.65;1.63;;;;;;;10.23;65.17;101102.97;5069193;28;20076;-47
2021/05/26 00:08:29;;;;;;;6.18;1.88;;;;;;;10.24;65.30;101112.91;5059818;28;20109;-51
2021/05/26 00:10:58;;;;;;;4.00;1.17;;;;;;;10.27;65.12;101109.44;5072896;28;20135;-49
2021/05/26 00:13:25;;;;;;;2.25;1.05;;;;;;;10.29;65.30;101107.16;5035791;28;20078;-50
2021/05/26 00:15:53;;;;;;;5.35;1.50;;;;;;;10.31;65.45;101110.41;5067683;28;20053;-52
2021/05/26 00:18:21;;;;;;;4.63;1.23;;;;;;;10.26;65.75;101107.84;5069444;28;20067;-50
2021/05/26 00:20:48;;;;;;;3.75;1.63;;;;;;;10.29;65.72;101109.94;5066492;28;20654;-49
2021/05/26 00:23:15;;;;;;;6.20;1.50;;;;;;;10.27;65.77;101109.44;5057516;28;20120;-49
2021/05/26 00:25:42;;;;;;;4.80;1.65;;;;;;;10.25;66.03;101111.72;5071724;28;20040;-52
2021/05/26 00:28:09;;;;;;;5.45;1.52;;;;;;;10.25;66.04;101106.19;5083270;28;20131;-49
2021/05/26 00:30:44;;;;;;;4.20;2.25;;;;;;;10.29;66.18;101111.88;5059875;28;20037;-47
2021/05/26 00:33:13;;;;;;;6.07;2.53;;;;;;;10.26;66.28;101110.59;5059623;28;20063;-47
2021/05/26 00:35:42;;;;;;;3.65;1.98;;;;;;;10.22;66.33;101112.41;5071080;28;20051;-47
2021/05/26 00:38:10;;;;;;;8.68;3.30;;;;;;;10.23;66.50;101113.22;5066142;28;20076;-48
2021/05/26 00:40:37;;;;;;;5.20;2.25;;;;;;;10.23;66.78;101102.97;5057121;28;20048;-47
2021/05/26 00:43:05;;;;;;;5.03;2.60;;;;;;;10.20;66.89;101109.16;5056574;28;20506;-49
2021/05/26 00:45:32;;;;;;;4.18;1.65;;;;;;;10.20;67.00;101111.09;5065761;28;20134;-47
2021/05/26 00:47:59;;;;;;;4.75;1.63;;;;;;;10.18;66.99;101111.47;5066840;28;20040;-47
2021/05/26 00:50:35;;;;;;;4.20;1.23;;;;;;;10.17;67.16;101101.53;5072831;28;20041;-50
2021/05/26 00:53:07;;;;;;;5.65;1.60;;;;;;;10.18;67.23;101100.38;5062570;28;20448;-47
2021/05/26 00:55:36;;;;;;;6.63;1.45;;;;;;;10.18;67.12;101105.09;5060063;28;20128;-48
2021/05/26 00:58:04;;;;;;;7.93;1.48;;;;;;;10.12;67.29;101112.78;5080953;28;20119;-46
2021/05/26 01:00:33;;;;;;;2.40;1.63;;;;;;;10.12;67.47;101115.56;5068105;28;20738;-49
2021/05/26 01:03:01;;;;;;;4.15;1.63;;;;;;;10.11;67.53;101102.81;5066196;28;20045;-47
2021/05/26 01:05:29;;;;;;;14.95;2.60;;;;;;;10.09;67.54;101107.06;5069109;28;20083;-47
2021/05/26 01:08:00;;;;;;;4.80;1.63;;;;;;;10.08;67.65;101105.47;5066711;28;20131;-48
2021/05/26 01:10:30;;;;;;;11.23;3.08;;;;;;;10.08;67.62;101103.50;5082230;28;20470;-48
2021/05/26 01:12:57;;;;;;;5.90;1.80;;;;;;;10.06;67.68;101108.53;5069808;28;20048;-48
2021/05/26 01:15:25;;;;;;;4.78;1.42;;;;;;;10.07;67.49;101103.81;5068853;28;20040;-48
2021/05/26 01:17:52;;;;;;;7.93;1.92;;;;;;;10.04;67.69;101105.31;5071466;28;20471;-48
2021/05/26 01:20:23;;;;;;;8.73;2.78;;;;;;;10.01;67.80;101117.03;5072593;28;20064;-49
2021/05/26 01:23:00;;;;;;;5.05;1.65;;;;;;;9.98;67.86;101109.38;5061246;28;20057;-49
2021/05/26 01:25:27;;;;;;;7.05;1.90;;;;;;;10.01;67.92;101102.38;5059704;28;20044;-50
2021/05/26 01:27:57;;;;;;;7.38;1.88;;;;;;;9.98;68.03;101100.31;5086799;28;20493;-48
2021/05/26 01:30:24;;;;;;;5.40;1.58;;;;;;;9.98;68.27;101095.56;5065703;28;20041;-49
2021/05/26 01:32:51;;;;;;;4.50;1.48;;;;;;;9.98;68.21;101100.31;5062749;28;20132;-48
2021/05/26 01:35:19;;;;;;;4.15;1.60;;;;;;;9.93;68.32;101104.03;5060840;28;20075;-49
2021/05/26 01:37:47;;;;;;;9.82;2.15;;;;;;;9.89;68.45;101099.53;5076935;28;20091;-49
2021/05/26 01:40:17;;;;;;;4.78;1.73;;;;;;;9.88;68.49;101095.13;5065013;28;20044;-48
2021/05/26 01:42:45;;;;;;;5.60;1.95;;;;;;;9.87;68.30;101102.63;5059069;28;20402;-48
2021/05/26 01:45:14;;;;;;;4.57;1.70;;;;;;;9.82;68.39;101098.06;5062851;28;20127;-49
2021/05/26 01:47:43;;;;;;;3.55;1.88;;;;;;;9.79;68.47;101104.25;5065657;28;20080;-50
2021/05/26 01:50:21;;;;;;;4.35;2.00;;;;;;;9.75;68.75;101091.44;5061535;28;20501;-50
2021/05/26 01:52:54;;;;;;;7.53;2.20;;;;;;;9.75;69.07;101092.25;5071341;28;20059;-50
2021/05/26 01:55:21;;;;;;;7.32;1.98;;;;;;;9.73;68.98;101099.25;5060189;28;20127;-49
2021/05/26 01:57:48;;;;;;;5.20;1.77;;;;;;;9.70;69.18;101094.38;5035542;28;20045;-47
2021/05/26 02:00:17;;;;;;;3.97;1.77;;;;;;;9.73;69.33;101093.72;5066900;28;20090;-55
2021/05/26 02:02:44;;;;;;;3.50;1.55;;;;;;;9.75;69.09;101092.25;5071476;28;20037;-47
2021/05/26 02:05:13;;;;;;;3.92;1.73;;;;;;;9.74;69.23;101095.38;5056832;28;20048;-47
2021/05/26 02:07:41;;;;;;;14.30;2.58;;;;;;;9.71;69.43;101101.56;5057539;28;20457;-50
2021/05/26 02:10:10;;;;;;;3.08;2.00;;;;;;;9.75;69.42;101102.50;5056244;28;20531;-47
2021/05/26 02:12:39;;;;;;;6.03;1.58;;;;;;;9.73;69.70;101089.03;5063514;28;20082;-47
2021/05/26 02:15:09;;;;;;;8.10;2.58;;;;;;;9.74;69.91;101089.84;5057153;28;20048;-47
2021/05/26 02:17:36;;;;;;;5.28;1.60;;;;;;;9.74;69.87;101095.38;5066391;28;20131;-48
2021/05/26 02:20:04;;;;;;;11.27;2.72;;;;;;;9.75;70.05;101088.66;5056027;28;20143;-49
2021/05/26 02:22:31;;;;;;;4.97;1.90;;;;;;;9.78;69.93;101088.84;5057185;28;20150;-50
2021/05/26 02:24:59;;;;;;;7.53;1.63;;;;;;;9.77;70.23;101089.16;5067035;28;20048;-49
2021/05/26 02:27:27;;;;;;;11.00;2.10;;;;;;;9.75;70.27;101080.38;5060966;28;20041;-50
2021/05/26 02:29:54;;;;;;;4.45;2.05;;;;;;;9.73;70.40;101071.59;5063708;28;20674;-47
2021/05/26 02:32:24;;;;;;;6.43;1.70;;;;;;;9.71;70.36;101071.13;5075716;28;20048;-48
2021/05/26 02:34:52;;;;;;;8.05;2.70;;;;;;;9.69;70.35;101079.75;5065563;28;20120;-50
2021/05/26 02:37:19;;;;;;;10.35;1.73;;;;;;;9.66;70.56;101085.16;5068486;28;20048;-49
2021/05/26 02:39:46;;;;;;;4.85;1.80;;;;;;;9.64;70.67;101084.66;5060022;28;20573;-49
2021/05/26 02:42:13;;;;;;;6.65;1.85;;;;;;;9.60;70.80;101078.16;5051066;28;20048;-47
2021/05/26 02:44:42;;;;;;;4.90;1.85;;;;;;;9.61;70.85;101090.84;5065631;28;20265;-47
2021/05/26 02:47:08;;;;;;;3.63;1.83;;;;;;;9.63;71.01;101094.09;5066381;28;20139;-49
2021/05/26 02:49:38;;;;;;;4.38;2.05;;;;;;;9.64;71.02;101090.16;5056387;28;20083;-48
2021/05/26 02:52:04;;;;;;;6.55;2.53;;;;;;;9.64;71.11;101084.66;5070873;28;20404;-49
2021/05/26 02:54:31;;;;;;;9.40;2.30;;;;;;;9.65;71.14;101086.28;5065807;28;20098;-53
2021/05/26 02:56:58;;;;;;;4.45;1.88;;;;;;;9.68;71.17;101091.97;5058638;28;20053;-47
2021/05/26 02:59:25;;;;;;;5.80;3.20;;;;;;;9.72;71.23;101092.91;5053526;28;20090;-49
2021/05/26 03:01:52;;;;;;;8.60;1.88;;;;;;;9.73;71.24;101088.19;5070974;28;20064;-49
2021/05/26 03:04:20;;;;;;;2.20;1.73;;;;;;;9.72;71.56;101086.56;5069888;28;20409;-47
2021/05/26 03:06:46;;;;;;;3.80;1.92;;;;;;;9.71;71.64;101088.53;5055611;28;20072;-50
2021/05/26 03:09:13;;;;;;;9.23;2.13;;;;;;;9.76;71.52;101093.88;5063068;28;20067;-49
2021/05/26 03:11:40;;;;;;;9.48;2.83;;;;;;;9.77;71.74;101094.69;5064580;28;20128;-48
2021/05/26 03:14:07;;;;;;;7.63;2.97;;;;;;;9.74;71.73;101100.91;5059780;28;20508;-49
2021/05/26 03:16:34;;;;;;;6.07;2.05;;;;;;;9.74;71.80;101100.91;5054499;28;20049;-47
2021/05/26 03:19:01;;;;;;;8.07;3.05;;;;;;;9.74;71.72;101100.91;5069385;28;20036;-46
2021/05/26 03:21:27;;;;;;;4.95;1.77;;;;;;;9.74;71.85;101098.91;5057842;28;20072;-49
2021/05/26 03:23:54;;;;;;;4.28;2.05;;;;;;;9.75;71.90;101097.78;5062673;28;20045;-48
2021/05/26 03:26:21;;;;;;;5.05;1.83;;;;;;;9.72;72.19;101097.63;5069499;28;20041;-48
2021/05/26 03:28:48;;;;;;;7.28;1.90;;;;;;;9.68;72.11;101103.03;5067688;28;20155;-48
2021/05/26 03:31:16;;;;;;;6.70;1.90;;;;;;;9.67;72.20;101100.56;5067708;28;20052;-48
2021/05/26 03:33:42;;;;;;;8.23;1.92;;;;;;;9.65;72.31;101094.56;5074731;28;20106;-47
2021/05/26 03:36:10;;;;;;;6.18;2.17;;;;;;;9.62;72.43;101098.81;5067776;28;20485;-48
2021/05/26 03:38:37;;;;;;;7.68;2.38;;;;;;;9.60;72.42;101100.28;5068048;28;20068;-48
2021/05/26 03:41:04;;;;;;;5.07;1.98;;;;;;;9.59;72.60;101098.66;5071540;28;20370;-48
2021/05/26 03:43:30;;;;;;;4.03;2.00;;;;;;;9.61;72.56;101110.22;5067127;28;20123;-50
2021/05/26 03:45:58;;;;;;;6.65;3.17;;;;;;;9.58;72.70;101108.09;5063975;28;20478;-48
2021/05/26 03:48:25;;;;;;;6.63;2.03;;;;;;;9.57;72.85;101109.22;5062801;28;20118;-48
2021/05/26 03:50:53;;;;;;;7.20;2.00;;;;;;;9.57;72.73;101112.81;5078207;28;20041;-47
2021/05/26 03:53:19;;;;;;;8.65;2.35;;;;;;;9.55;72.69;101117.88;5054971;28;20060;-47
2021/05/26 03:55:47;;;;;;;4.07;2.33;;;;;;;9.52;72.74;101126.00;5063783;28;20053;-49
2021/05/26 03:58:15;;;;;;;5.20;2.42;;;;;;;9.48;72.84;101130.53;5070016;28;20135;-47
2021/05/26 04:00:42;;;;;;;6.15;1.48;;;;;;;9.46;72.92;101122.59;5051875;28;20044;-47
2021/05/26 04:03:08;;;;;;;6.75;2.20;;;;;;;9.42;72.86;101120.81;5056240;28;20124;-49
2021/05/26 04:05:36;;;;;;;11.20;2.15;;;;;;;9.40;72.89;101128.63;5059900;28;20048;-47
2021/05/26 04:08:02;;;;;;;7.80;2.25;;;;;;;9.34;73.06;101127.16;5064953;28;20072;-48
2021/05/26 04:10:29;;;;;;;3.83;1.55;;;;;;;9.29;73.18;101121.81;5073341;28;20450;-47
2021/05/26 04:12:56;;;;;;;12.32;2.63;;;;;;;9.26;73.16;101128.81;5060605;28;20116;-47
2021/05/26 04:15:23;;;;;;;6.97;2.35;;;;;;;9.21;73.21;101126.22;5052756;28;20468;-50
2021/05/26 04:17:49;;;;;;;7.47;2.38;;;;;;;9.18;73.21;101124.91;5065348;28;20426;-48
2021/05/26 04:20:16;;;;;;;5.53;1.70;;;;;;;9.18;73.20;101126.88;5069721;28;20063;-48
2021/05/26 04:22:43;;;;;;;7.43;2.60;;;;;;;9.13;73.14;101132.56;5053600;28;20057;-48
2021/05/26 04:25:10;;;;;;;5.18;1.88;;;;;;;9.15;73.34;101130.28;5063201;28;20064;-49
2021/05/26 04:27:37;;;;;;;5.72;2.22;;;;;;;9.14;73.30;101136.94;5076237;28;20041;-47
2021/05/26 04:30:05;;;;;;;6.28;2.00;;;;;;;9.18;73.39;101141.50;5063694;28;20528;-47
2021/05/26 04:32:32;;;;;;;4.88;1.85;;;;;;;9.22;73.32;101138.06;5059633;28;20116;-50
2021/05/26 04:35:03;;;;;;;12.38;3.08;;;;;;;9.22;73.53;101133.34;5072493;28;20041;-48
2021/05/26 04:37:29;;;;;;;10.05;2.20;;;;;;;9.27;73.52;101132.34;5071927;28;20453;-48
2021/05/26 04:39:56;;;;;;;5.60;2.97;;;;;;;9.29;73.66;101132.88;5072067;28;20131;-49
2021/05/26 04:42:23;;;;;;;8.48;2.50;;;;;;;9.34;73.64;101133.50;5065731;28;20787;-49
2021/05/26 04:44:50;;;;;;;6.97;2.03;;;;;;;9.36;73.63;101133.16;5061611;28;20052;-51
2021/05/26 04:47:17;;;;;;;5.10;1.98;;;;;;;9.37;73.73;101130.06;5068966;28;20044;-48
2021/05/26 04:49:44;;;;;;;7.38;2.55;;;;;;;9.41;73.64;101130.22;5062883;28;20143;-47
2021/05/26 04:52:10;;;;;;;9.55;3.17;;;;;;;9.46;73.57;101141.13;5069369;28;20110;-47
2021/05/26 04:54:37;;;;;;;10.40;2.70;;;;;;;9.49;73.65;101137.69;5078328;28;20083;-48
2021/05/26 04:57:05;;;;;;;4.70;2.13;;;;;;;9.50;73.66;101144.88;5071255;28;20115;-48
2021/05/26 04:59:32;;;;;;;6.88;2.42;;;;;;;9.53;73.77;101144.22;5071284;28;20082;-47
2021/05/26 05:01:59;;;;;;;6.93;2.22;;;;;;;9.56;73.69;101135.22;5072861;28;20132;-49
2021/05/26 05:04:26;;;;;;;9.00;2.72;;;;;;;9.59;73.69;101148.41;5057229;28;20144;-50
2021/05/26 05:06:55;;;;;;;7.80;2.28;;;;;;;9.57;73.90;101139.63;5069764;28;20060;-48
2021/05/26 05:09:22;;;;;;;7.00;2.00;;;;;;;9.61;73.82;101137.84;5064304;28;20573;-49
2021/05/26 05:11:51;;;;;;;6.60;2.08;;;;;;;9.63;73.95;101139.16;5064034;28;20131;-49
2021/05/26 05:14:19;;;;;;;7.60;2.47;;;;;;;9.62;73.92;101136.69;5064358;28;20394;-54
2021/05/26 05:16:49;;;;;;;7.03;2.38;;;;;;;9.66;73.81;101140.44;5063192;28;20582;-50
2021/05/26 05:19:16;;;;;;;8.20;2.92;;;;;;;9.65;74.04;101136.84;5063367;28;20127;-49
2021/05/26 05:21:42;;;;;;;7.53;2.30;;;;;;;9.70;74.07;101141.38;5061494;28;20083;-50
2021/05/26 05:24:09;;;;;;;6.55;2.70;;;;;;;9.73;73.95;101133.25;5058051;28;20041;-49
2021/05/26 05:26:36;;;;;;;9.02;2.97;;;;;;;9.74;73.95;101134.06;5070478;28;20039;-49
2021/05/26 05:29:03;;;;;;;7.22;2.50;;;;;;;9.75;73.93;101142.03;5067015;28;20559;-48
2021/05/26 05:31:31;;;;;;;5.10;2.00;;;;;;;9.78;74.11;101146.91;5065536;28;20123;-50
2021/05/26 05:33:58;;;;;;;5.20;2.35;;;;;;;9.79;74.05;101136.66;5064897;28;20102;-48
2021/05/26 05:36:25;;;;;;;7.45;2.35;;;;;;;9.84;74.24;101138.41;5071945;28;20037;-48
2021/05/26 05:38:52;;;;;;;10.25;2.25;;;;;;;9.90;74.09;101151.72;5060616;28;20048;-50
2021/05/26 05:41:22;;;;;;;8.60;2.40;;;;;;;9.97;73.98;101145.69;5058878;28;20052;-49
2021/05/26 05:43:49;;;;;;;4.72;2.13;;;;;;;10.00;73.98;101145.03;5069656;28;20044;-48
2021/05/26 05:46:15;;;;;;;7.60;2.40;;;;;;;10.01;73.94;101157.69;5069473;28;20036;-51
2021/05/26 05:48:44;;;;;;;6.53;2.25;;;;;;;10.02;73.94;101162.91;5070883;28;20505;-50
2021/05/26 05:51:10;;;;;;;11.02;2.58;;;;;;;10.01;74.11;101160.47;5062524;28;20130;-52
2021/05/26 05:53:37;;;;;;;6.38;2.08;;;;;;;10.02;74.07;101168.44;5078282;28;20599;-58
2021/05/26 05:56:04;;;;;;;8.32;2.28;;;;;;;10.03;73.96;101156.25;5063933;28;20049;-54
2021/05/26 05:58:32;;;;;;;10.15;3.28;;;;;;;10.05;73.89;101150.38;5061091;28;20058;-50
2021/05/26 06:00:59;;;;;;;12.13;2.72;;;;;;;10.09;73.93;101159.63;5069082;28;20063;-50
2021/05/26 06:03:26;;;;;;;8.88;2.63;;;;;;;10.10;73.61;101162.06;5059969;28;20051;-49
2021/05/26 06:05:52;;;;;;;6.38;2.10;;;;;;;10.13;73.86;101160.63;5070973;28;20048;-49
2021/05/26 06:08:19;;;;;;;8.10;2.55;;;;;;;10.20;73.87;101158.97;5056036;28;20043;-48
2021/05/26 06:10:46;;;;;;;14.13;3.75;;;;;;;10.30;74.04;101158.59;5066887;28;20401;-49
2021/05/26 06:13:13;;;;;;;5.93;2.42;;;;;;;10.37;73.63;101158.91;5064033;28;20141;-50
2021/05/26 06:15:40;;;;;;;18.75;3.92;;;;;;;10.37;73.72;101156.13;5050816;28;20080;-48
2021/05/26 06:18:06;;;;;;;12.13;2.55;;;;;;;10.38;73.60;101163.25;5067223;28;20571;-48
2021/05/26 06:20:34;;;;;;;11.20;2.45;;;;;;;10.43;73.54;101159.53;5047052;28;20413;-50
2021/05/26 06:23:02;;;;;;;5.53;2.33;;;;;;;10.46;73.58;101161.59;5040341;28;20052;-49
2021/05/26 06:25:28;;;;;;;5.85;3.10;;;;;;;10.51;73.70;101166.16;5068346;28;20052;-50
2021/05/26 06:27:55;;;;;;;7.20;2.45;;;;;;;10.60;73.71;101161.34;5071185;28;20144;-49
2021/05/26 06:30:22;;;;;;;3.65;1.92;;;;;;;10.58;73.67;101170.00;5056338;28;20494;-50
2021/05/26 06:32:50;;;;;;;7.88;2.75;;;;;;;10.65;73.70;101163.91;5075901;28;20040;-47
2021/05/26 06:35:16;;;;;;;8.57;3.05;;;;;;;10.75;73.34;101169.09;5068942;28;20132;-48
2021/05/26 06:37:43;;;;;;;7.43;2.17;;;;;;;10.78;73.10;101173.94;5070579;28;20448;-50
2021/05/26 06:40:10;;;;;;;8.90;2.17;;;;;;;10.83;73.13;101166.25;5068778;28;20072;-50
2021/05/26 06:42:42;;;;;;;3.65;2.35;;;;;;;10.92;72.99;101168.97;5070377;28;20033;-49
2021/05/26 06:45:10;;;;;;;8.75;2.45;;;;;;;10.94;72.82;101169.44;5062317;28;20343;-48
2021/05/26 06:47:37;;;;;;;8.32;2.83;;;;;;;10.92;72.88;101175.31;5066219;28;20128;-51
2021/05/26 06:50:04;;;;;;;15.45;3.55;;;;;;;10.94;72.96;101177.72;5069355;28;20489;-51
2021/05/26 06:52:32;;;;;;;9.88;2.90;;;;;;;10.99;72.84;101167.28;5056813;28;20543;-49
2021/05/26 06:55:06;;;;;;;5.47;2.03;;;;;;;11.06;72.64;101169.50;5068967;28;20076;-51
2021/05/26 06:57:33;;;;;;;5.45;2.72;;;;;;;11.10;72.45;101170.44;5068749;28;20067;-52
2021/05/26 07:00:00;;;;;;;8.85;2.47;;;;;;;11.17;72.53;101181.00;5057427;28;20049;-49
2021/05/26 07:02:27;;;;;;;6.40;2.28;;;;;;;11.21;72.35;101184.69;5071070;28;20453;-48
2021/05/26 07:04:53;;;;;;;11.10;4.55;;;;;;;11.25;72.38;101172.59;5056599;28;20032;-49
2021/05/26 07:07:21;;;;;;;11.60;3.15;;;;;;;11.33;72.40;101179.22;5074102;28;20378;-50
2021/05/26 07:09:47;;;;;;;7.90;2.78;;;;;;;11.50;72.19;101182.66;5069936;28;20048;-52
2021/05/26 07:12:14;;;;;;;13.13;2.70;;;;;;;11.67;71.98;101184.44;5073501;28;20488;-50
2021/05/26 07:14:41;;;;;;;11.50;3.38;;;;;;;11.83;71.92;101187.41;5074869;28;20098;-48
2021/05/26 07:17:08;;;;;;;9.52;2.60;;;;;;;11.95;71.90;101182.69;5065673;28;20076;-49
2021/05/26 07:19:35;;;;;;;7.18;2.60;;;;;;;11.98;71.62;101195.06;5069543;28;20048;-50
2021/05/26 07:22:02;;;;;;;8.10;2.65;;;;;;;12.02;71.17;101179.38;5060442;28;20048;-53
2021/05/26 07:24:29;;;;;;;8.32;3.33;;;;;;;12.01;70.98;101188.84;5074509;28;20563;-48
2021/05/26 07:26:56;;;;;;;15.05;2.85;;;;;;;12.09;70.94;101190.72;5065348;28;20048;-51
2021/05/26 07:29:24;;;;;;;8.10;3.13;;;;;;;12.14;70.95;101182.16;5056361;28;20543;-49
2021/05/26 07:31:51;;;;;;;5.03;2.50;;;;;;;12.15;70.81;101186.56;5067500;28;20101;-47
2021/05/26 07:34:18;;;;;;;9.77;3.47;;;;;;;12.21;70.63;101182.38;5041229;28;20053;-48
2021/05/26 07:36:45;;;;;;;10.15;3.33;;;;;;;12.34;70.77;101192.34;5071327;28;20048;-52
2021/05/26 07:39:12;;;;;;;10.00;3.03;;;;;;;12.44;70.71;101191.09;5066574;28;20064;-52
2021/05/26 07:41:39;;;;;;;9.55;2.72;;;;;;;12.48;70.27;101190.03;5071732;28;20397;-48
2021/05/26 07:44:06;;;;;;;10.82;3.90;;;;;;;12.51;70.33;101192.13;5072635;28;20048;-49
2021/05/26 07:46:33;;;;;;;7.65;3.05;;;;;;;12.71;70.96;101198.69;5058062;28;20102;-51
2021/05/26 07:49:00;;;;;;;14.05;4.43;;;;;;;12.95;71.33;101195.91;5062822;28;20098;-53
2021/05/26 07:51:31;;;;;;;10.30;2.95;;;;;;;13.03;70.60;101196.91;5073250;28;20044;-53
2021/05/26 07:53:59;;;;;;;11.75;3.85;;;;;;;13.01;70.14;101200.06;5073668;28;20079;-51
2021/05/26 07:56:29;;;;;;;8.45;3.38;;;;;;;12.91;69.43;101194.16;5058378;28;20159;-51
2021/05/26 07:58:56;;;;;;;11.20;2.75;;;;;;;12.80;69.40;101200.22;5066766;28;20139;-49
2021/05/26 08:01:22;;;;;;;11.57;2.88;;;;;;;12.69;69.14;101199.06;5072614;28;20174;-43
2021/05/26 08:03:49;;;;;;;6.45;2.55;;;;;;;12.66;69.15;101198.94;5083227;28;20051;-50
2021/05/26 08:06:16;;;;;;;6.80;2.55;;;;;;;13.00;69.60;101187.31;5063848;28;20445;-53
2021/05/26 08:08:43;;;;;;;5.05;2.22;;;;;;;13.41;69.55;101187.00;5073329;28;20064;-51
2021/05/26 08:11:09;;;;;;;39.90;4.38;;;;;;;13.80;69.06;101190.88;5071976;28;20214;-51
2021/05/26 08:13:36;;;;;;;7.10;2.42;;;;;;;14.12;68.45;101193.69;5065518;28;20040;-52
2021/05/26 08:16:03;;;;;;;5.93;2.10;;;;;;;14.27;67.70;101185.34;5072747;28;20155;-49
2021/05/26 08:18:30;;;;;;;11.80;3.63;;;;;;;14.14;66.81;101189.38;5058716;28;20135;-48
2021/05/26 08:20:57;;;;;;;7.43;2.58;;;;;;;14.20;66.98;101184.34;5064118;28;20106;-48
2021/05/26 08:23:26;;;;;;;5.82;2.53;;;;;;;14.27;66.24;101187.34;5070202;28;20044;-50
2021/05/26 08:25:53;;;;;;;9.55;3.17;;;;;;;14.20;65.75;101196.31;5071611;28;20098;-52
2021/05/26 08:28:20;;;;;;;3.72;2.33;;;;;;;14.03;65.59;101191.88;5060448;28;20057;-52
2021/05/26 08:30:46;;;;;;;7.88;2.40;;;;;;;13.75;65.49;101191.13;5060088;28;20102;-49
2021/05/26 08:33:14;;;;;;;7.13;3.90;;;;;;;13.52;65.32;101192.06;5066849;28;20081;-49
2021/05/26 08:35:40;;;;;;;6.00;2.03;;;;;;;13.46;65.85;101185.94;5049553;28;20054;-50
2021/05/26 08:38:07;;;;;;;7.18;3.13;;;;;;;14.30;66.77;101186.59;5045110;28;20051;-49
2021/05/26 08:40:34;;;;;;;4.78;1.80;;;;;;;15.18;65.99;101177.56;5070567;28;20052;-52
2021/05/26 08:43:02;;;;;;;10.73;2.88;;;;;;;15.97;65.00;101177.97;5070638;28;20048;-49
2021/05/26 08:45:29;;;;;;;4.63;1.52;;;;;;;16.78;64.08;101188.59;5068757;28;20131;-49
2021/05/26 08:47:59;;;;;;;8.93;2.15;;;;;;;17.42;62.57;101187.47;5069676;28;20052;-51
2021/05/26 08:50:26;;;;;;;4.53;1.80;;;;;;;17.36;61.51;101183.41;5068734;28;20093;-50
2021/05/26 08:52:53;;;;;;;8.90;2.28;;;;;;;17.17;60.30;101183.56;5084367;28;20079;-51
2021/05/26 08:55:22;;;;;;;3.17;2.03;;;;;;;17.35;59.99;101180.97;5088703;28;20489;-49
2021/05/26 08:57:49;;;;;;;8.18;2.67;;;;;;;17.13;59.29;101182.69;5084760;28;20119;-50
2021/05/26 09:00:16;;;;;;;5.80;2.00;;;;;;;16.73;58.92;101182.50;5089169;28;20043;-48
2021/05/26 09:02:43;;;;;;;6.50;1.92;;;;;;;16.35;58.33;101181.47;5086290;28;20068;-49
2021/05/26 09:05:22;;;;;;;7.00;2.65;;;;;;;16.70;57.80;101177.66;5079729;28;20047;-49
2021/05/26 09:07:49;;;;;;;6.75;1.45;;;;;;;17.23;58.05;101184.84;5086574;28;20072;-51
2021/05/26 09:10:19;;;;;;;7.55;1.88;;;;;;;17.98;57.06;101186.53;5088105;28;20036;-49
2021/05/26 09:12:47;;;;;;;3.95;2.10;;;;;;;18.63;55.84;101178.34;5087051;28;20044;-49
2021/05/26 09:15:20;;;;;;;4.43;1.67;;;;;;;19.09;53.93;101181.47;5086552;28;20032;-51
2021/05/26 09:17:54;;;;;;;4.30;1.67;;;;;;;18.96;53.23;101180.16;5087874;28;20047;-50
2021/05/26 09:20:29;;;;;;;2.92;1.45;;;;;;;19.13;52.11;101179.47;5077515;28;20463;-50
2021/05/26 09:23:00;;;;;;;6.07;1.98;;;;;;;19.31;51.47;101181.16;5073566;28;20048;-49
2021/05/26 09:25:28;;;;;;;3.97;1.40;;;;;;;19.08;51.55;101179.84;5056905;28;20036;-48
2021/05/26 09:28:34;;;;;;;7.82;1.58;;;;;;;18.43;49.91;101183.34;5071092;28;20159;-50
2021/05/26 09:31:05;;;;;;;3.10;1.13;;;;;;;17.66;52.49;101182.59;5070335;28;20048;-49
2021/05/26 09:33:50;;;;;;;3.63;1.70;;;;;;;17.18;53.23;101187.16;5071390;28;20039;-51
2021/05/26 09:36:21;;;;;;;7.47;1.80;;;;;;;17.21;53.62;101186.41;5061562;28;20723;-50
2021/05/26 09:38:56;;;;;;;10.85;3.22;;;;;;;17.07;53.43;101187.00;5068123;28;20074;-50
2021/05/26 09:41:29;;;;;;;6.82;1.92;;;;;;;16.86;53.60;101189.50;5060207;28;20041;-49
2021/05/26 09:43:58;;;;;;;8.02;1.73;;;;;;;16.99;53.73;101185.28;5071384;28;20056;-50
2021/05/26 09:46:32;;;;;;;4.60;1.20;;;;;;;17.72;52.93;101183.84;5071539;28;20075;-51
2021/05/26 09:49:15;;;;;;;5.20;1.60;;;;;;;18.58;51.59;101181.50;5070481;28;20048;-49
2021/05/26 09:51:44;;;;;;;3.30;1.30;;;;;;;19.41;50.71;101179.63;5063633;28;20048;-49
2021/05/26 09:54:25;;;;;;;4.38;1.38;;;;;;;20.18;48.47;101178.22;5060987;28;20124;-50
2021/05/26 09:56:53;;;;;;;6.17;1.20;;;;;;;20.71;48.38;101179.06;5071341;28;20102;-48
2021/05/26 09:59:22;;;;;;;5.57;1.60;;;;;;;21.06;47.54;101166.94;5071528;28;20372;-49
2021/05/26 10:01:54;;;;;;;3.60;1.40;;;;;;;20.81;47.49;101183.88;5070658;28;20064;-47
2021/05/26 10:04:25;;;;;;;5.60;1.75;;;;;;;20.25;46.86;101167.03;5071117;28;20087;-47
2021/05/26 10:06:55;;;;;;;3.10;1.88;;;;;;;20.33;47.31;101174.28;5079381;28;20040;-48
2021/05/26 10:09:25;;;;;;;5.18;1.50;;;;;;;20.70;47.13;101171.84;5076269;28;20044;-47
2021/05/26 10:11:56;;;;;;;2.03;1.10;;;;;;;21.12;46.11;101171.00;5068312;28;20100;-46
2021/05/26 10:14:24;;;;;;;3.15;1.33;;;;;;;21.23;45.58;101178.19;5071449;28;20067;-46
2021/05/26 10:16:54;;;;;;;3.13;1.25;;;;;;;21.12;45.17;101166.16;5071180;28;20091;-48
2021/05/26 10:19:23;;;;;;;4.85;1.63;;;;;;;21.15;45.20;101162.50;5070817;28;20123;-49
2021/05/26 10:21:50;;;;;;;6.18;1.40;;;;;;;21.37;44.95;101165.25;5066619;28;20568;-47
2021/05/26 10:24:21;;;;;;;4.07;1.40;;;;;;;21.35;44.99;101176.13;5071115;28;20060;-49
2021/05/26 10:27:01;;;;;;;7.10;1.75;;;;;;;21.06;45.07;101167.78;5070351;28;20090;-48
2021/05/26 10:29:28;;;;;;;4.95;1.38;;;;;;;20.97;45.24;101166.59;5058151;28;20102;-47
2021/05/26 10:31:56;;;;;;;5.20;1.50;;;;;;;20.97;44.77;101172.22;5076090;28;20067;-49
2021/05/26 10:34:50;;;;;;;3.35;1.42;;;;;;;20.95;44.57;101155.72;5070806;28;20457;-46
2021/05/26 10:37:29;;;;;;;2.58;1.30;;;;;;;20.89;43.54;101157.31;5071127;28;20160;-47
2021/05/26 10:39:56;;;;;;;5.82;1.10;;;;;;;20.72;44.89;101163.81;5061713;28;20072;-46
2021/05/26 10:42:30;;;;;;;4.13;1.42;;;;;;;20.49;44.38;101158.59;5067920;28;20102;-46
2021/05/26 10:44:57;;;;;;;2.97;1.10;;;;;;;20.42;44.73;101154.97;5064761;28;20048;-49
2021/05/26 10:47:36;;;;;;;8.93;1.75;;;;;;;20.51;44.67;101159.00;5065927;28;20133;-49
2021/05/26 10:50:15;;;;;;;4.50;1.20;;;;;;;20.20;44.96;101153.34;5060769;28;20052;-47
2021/05/26 10:52:57;;;;;;;1.60;1.20;;;;;;;19.60;45.28;101156.03;5070273;28;20464;-47
2021/05/26 10:55:35;;;;;;;;;;;;;;;19.26;45.81;101150.66;5071184;28;20091;-45
2021/05/26 10:58:24;;;;;;;2.08;1.00;;;;;;;19.06;46.01;101159.78;5070296;28;19946;-48
2021/05/26 11:00:57;;;;;;;4.13;1.45;;;;;;;19.13;45.14;101157.03;5070703;28;20397;-46
2021/05/26 11:03:24;;;;;;;3.72;0.80;;;;;;;19.22;45.81;101149.84;5057748;28;20128;-46
2021/05/26 11:05:57;;;;;;;3.50;1.10;;;;;;;19.43;46.03;101146.38;5064163;28;20044;-46
2021/05/26 11:08:31;;;;;;;4.05;1.20;;;;;;;19.51;45.43;101156.44;5057009;28;20163;-46
2021/05/26 11:11:26;;;;;;;7.47;1.10;;;;;;;19.53;45.26;101151.22;5063035;28;20052;-47
2021/05/26 11:14:21;;;;;;;;;;;;;;;19.31;45.78;101147.47;5070678;28;20052;-47
2021/05/26 11:16:51;;;;;;;1.52;1.10;;;;;;;19.02;47.07;101147.72;5056410;28;19978;-48
2021/05/26 11:19:20;;;;;;;1.98;1.10;;;;;;;18.71;46.71;101147.16;5065617;28;20048;-47
2021/05/26 11:21:57;;;;;;;6.47;0.80;;;;;;;18.59;46.06;101152.25;5050458;28;20071;-48
2021/05/26 11:24:32;;;;;;;3.60;1.08;;;;;;;18.56;46.21;101145.44;5067728;28;20064;-49
2021/05/26 11:27:01;;;;;;;2.47;1.13;;;;;;;18.55;46.72;101143.84;5069818;28;20055;-48
2021/05/26 11:29:35;;;;;;;1.83;0.70;;;;;;;18.51;46.73;101154.22;5078580;28;20773;-49
2021/05/26 11:32:16;;;;;;;1.33;0.75;;;;;;;18.32;46.07;101157.22;5079934;28;20052;-48
2021/05/26 11:34:48;;;;;;;1.60;1.02;;;;;;;18.02;46.99;101157.38;5070077;28;20127;-50